sensor_id;sensor_type;location;lat;lon;timestamp;temperature;humidity
3752;DHT22;50827;47.014;7.652;2023-04-09T00:01:03;7.80;99.90
3752;DHT22;50827;47.014;7.652;2023-04-09T00:03:30;7.70;99.90
3752;DHT22;50827;47.014;7.652;2023-04-09T00:05:57;7.60;99.90
3752;DHT22;50827;47.014;7.652;2023-04-09T00:08:24;7.60;99.90
3752;DHT22;50827;47.014;7.652;2023-04-09T00:10:51;7.50;99.90
3752;DHT22;50827;47.014;7.652;2023-04-09T00:13:19;7.40;99.90
3752;DHT22;50827;47.014;7.652;2023-04-09T00:16:01;7.40;99.90
3752;DHT22;50827;47.014;7.652;2023-04-09T00:18:28;7.30;99.90
3752;DHT22;50827;47.014;7.652;2023-04-09T00:20:54;7.20;99.90
3752;DHT22;50827;47.014;7.652;2023-04-09T00:23:21;7.20;99.90
3752;DHT22;50827;47.014;7.652;2023-04-09T00:25:48;7.10;99.90
3752;DHT22;50827;47.014;7.652;2023-04-09T00:28:14;7.10;99.90
3752;DHT22;50827;47.014;7.652;2023-04-09T00:30:42;7.10;99.90
3752;DHT22;50827;47.014;7.652;2023-04-09T00:33:08;7.10;99.90
3752;DHT22;50827;47.014;7.652;2023-04-09T00:35:35;7.10;99.90
3752;DHT22;50827;47.014;7.652;2023-04-09T00:38:02;7.20;99.90
3752;DHT22;50827;47.014;7.652;2023-04-09T00:40:29;7.10;99.90
3752;DHT22;50827;47.014;7.652;2023-04-09T00:42:56;7.20;99.90
3752;DHT22;50827;47.014;7.652;2023-04-09T00:45:23;7.20;99.90
3752;DHT22;50827;47.014;7.652;2023-04-09T00:47:49;7.20;99.90
3752;DHT22;50827;47.014;7.652;2023-04-09T00:50:16;7.10;99.90
3752;DHT22;50827;47.014;7.652;2023-04-09T00:52:43;7.10;99.90
3752;DHT22;50827;47.014;7.652;2023-04-09T00:55:11;7.20;99.90
3752;DHT22;50827;47.014;7.652;2023-04-09T00:57:38;7.20;99.90
3752;DHT22;50827;47.014;7.652;2023-04-09T01:00:06;7.10;99.90
3752;DHT22;50827;47.014;7.652;2023-04-09T01:02:33;7.10;99.90
3752;DHT22;50827;47.014;7.652;2023-04-09T01:05:00;7.20;99.90
3752;DHT22;50827;47.014;7.652;2023-04-09T01:10:04;7.10;99.90
3752;DHT22;50827;47.014;7.652;2023-04-09T01:15:19;7.10;99.90
3752;DHT22;50827;47.014;7.652;2023-04-09T01:20:49;7.10;99.90
3752;DHT22;50827;47.014;7.652;2023-04-09T01:23:44;7.00;99.90
3752;DHT22;50827;47.014;7.652;2023-04-09T01:28:53;6.90;99.90
3752;DHT22;50827;47.014;7.652;2023-04-09T01:31:25;7.00;99.90
3752;DHT22;50827;47.014;7.652;2023-04-09T01:33:54;6.90;99.90
3752;DHT22;50827;47.014;7.652;2023-04-09T01:36:22;6.90;99.90
3752;DHT22;50827;47.014;7.652;2023-04-09T01:38:50;6.90;99.90
3752;DHT22;50827;47.014;7.652;2023-04-09T01:41:19;6.80;99.90
3752;DHT22;50827;47.014;7.652;2023-04-09T01:43:50;6.70;99.90
3752;DHT22;50827;47.014;7.652;2023-04-09T01:46:18;6.70;99.90
3752;DHT22;50827;47.014;7.652;2023-04-09T01:48:45;6.70;99.90
3752;DHT22;50827;47.014;7.652;2023-04-09T01:51:13;6.70;99.90
3752;DHT22;50827;47.014;7.652;2023-04-09T01:53:40;6.60;99.90
3752;DHT22;50827;47.014;7.652;2023-04-09T01:56:08;6.50;99.90
3752;DHT22;50827;47.014;7.652;2023-04-09T01:58:35;6.50;99.90
3752;DHT22;50827;47.014;7.652;2023-04-09T02:03:53;6.50;99.90
3752;DHT22;50827;47.014;7.652;2023-04-09T02:06:33;6.40;99.90
3752;DHT22;50827;47.014;7.652;2023-04-09T02:09:07;6.50;99.90
3752;DHT22;50827;47.014;7.652;2023-04-09T02:11:36;6.40;99.90
3752;DHT22;50827;47.014;7.652;2023-04-09T02:14:04;6.10;99.90
3752;DHT22;50827;47.014;7.652;2023-04-09T02:16:33;6.00;99.90
3752;DHT22;50827;47.014;7.652;2023-04-09T02:19:01;6.00;99.90
3752;DHT22;50827;47.014;7.652;2023-04-09T02:21:28;5.90;99.90
3752;DHT22;50827;47.014;7.652;2023-04-09T02:23:55;5.90;99.90
3752;DHT22;50827;47.014;7.652;2023-04-09T02:26:22;6.00;99.90
3752;DHT22;50827;47.014;7.652;2023-04-09T02:28:49;6.00;99.90
3752;DHT22;50827;47.014;7.652;2023-04-09T02:31:16;6.00;99.90
3752;DHT22;50827;47.014;7.652;2023-04-09T02:33:43;6.00;99.90
3752;DHT22;50827;47.014;7.652;2023-04-09T02:36:11;6.00;99.90
3752;DHT22;50827;47.014;7.652;2023-04-09T02:38:41;6.00;99.90
3752;DHT22;50827;47.014;7.652;2023-04-09T02:41:08;6.00;99.90
3752;DHT22;50827;47.014;7.652;2023-04-09T02:43:35;6.00;99.90
3752;DHT22;50827;47.014;7.652;2023-04-09T02:46:02;5.80;99.90
3752;DHT22;50827;47.014;7.652;2023-04-09T02:48:29;5.70;99.90
3752;DHT22;50827;47.014;7.652;2023-04-09T02:50:56;5.70;99.90
3752;DHT22;50827;47.014;7.652;2023-04-09T02:53:22;5.70;99.90
3752;DHT22;50827;47.014;7.652;2023-04-09T02:55:49;5.70;99.90
3752;DHT22;50827;47.014;7.652;2023-04-09T02:58:16;5.70;99.90
3752;DHT22;50827;47.014;7.652;2023-04-09T03:00:42;5.70;99.90
3752;DHT22;50827;47.014;7.652;2023-04-09T03:03:09;5.70;99.90
3752;DHT22;50827;47.014;7.652;2023-04-09T03:05:36;5.70;99.90
3752;DHT22;50827;47.014;7.652;2023-04-09T03:08:04;5.70;99.90
3752;DHT22;50827;47.014;7.652;2023-04-09T03:10:31;5.70;99.90
3752;DHT22;50827;47.014;7.652;2023-04-09T03:12:57;5.70;99.90
3752;DHT22;50827;47.014;7.652;2023-04-09T03:15:24;5.70;99.90
3752;DHT22;50827;47.014;7.652;2023-04-09T03:17:51;5.50;99.90
3752;DHT22;50827;47.014;7.652;2023-04-09T03:20:17;5.50;99.90
3752;DHT22;50827;47.014;7.652;2023-04-09T03:22:44;5.50;99.90
3752;DHT22;50827;47.014;7.652;2023-04-09T03:25:11;5.50;99.90
3752;DHT22;50827;47.014;7.652;2023-04-09T03:27:37;5.50;99.90
3752;DHT22;50827;47.014;7.652;2023-04-09T03:30:04;5.50;99.90
3752;DHT22;50827;47.014;7.652;2023-04-09T03:32:31;5.50;99.90
3752;DHT22;50827;47.014;7.652;2023-04-09T03:34:58;5.50;99.90
3752;DHT22;50827;47.014;7.652;2023-04-09T03:37:25;5.50;99.90
3752;DHT22;50827;47.014;7.652;2023-04-09T03:39:51;5.50;99.90
3752;DHT22;50827;47.014;7.652;2023-04-09T03:42:18;5.50;99.90
3752;DHT22;50827;47.014;7.652;2023-04-09T03:44:45;5.50;99.90
3752;DHT22;50827;47.014;7.652;2023-04-09T03:47:11;5.50;99.90
3752;DHT22;50827;47.014;7.652;2023-04-09T03:49:38;5.40;99.90
3752;DHT22;50827;47.014;7.652;2023-04-09T03:52:08;5.40;99.90
3752;DHT22;50827;47.014;7.652;2023-04-09T03:54:34;5.40;99.90
3752;DHT22;50827;47.014;7.652;2023-04-09T03:57:01;5.40;99.90
3752;DHT22;50827;47.014;7.652;2023-04-09T03:59:29;5.30;99.90
3752;DHT22;50827;47.014;7.652;2023-04-09T04:01:56;5.30;99.90
3752;DHT22;50827;47.014;7.652;2023-04-09T04:04:23;5.20;99.90
3752;DHT22;50827;47.014;7.652;2023-04-09T04:06:50;5.20;99.90
3752;DHT22;50827;47.014;7.652;2023-04-09T04:09:17;5.20;99.90
3752;DHT22;50827;47.014;7.652;2023-04-09T04:11:43;5.10;99.90
3752;DHT22;50827;47.014;7.652;2023-04-09T04:14:10;5.10;99.90
3752;DHT22;50827;47.014;7.652;2023-04-09T04:16:38;5.10;99.90
3752;DHT22;50827;47.014;7.652;2023-04-09T04:19:05;5.00;99.90
3752;DHT22;50827;47.014;7.652;2023-04-09T04:21:32;5.00;99.90
3752;DHT22;50827;47.014;7.652;2023-04-09T04:23:58;5.00;99.90
3752;DHT22;50827;47.014;7.652;2023-04-09T04:26:25;4.90;99.90
3752;DHT22;50827;47.014;7.652;2023-04-09T04:28:52;4.90;99.90
3752;DHT22;50827;47.014;7.652;2023-04-09T04:31:19;4.90;99.90
3752;DHT22;50827;47.014;7.652;2023-04-09T04:33:45;4.90;99.90
3752;DHT22;50827;47.014;7.652;2023-04-09T04:36:13;4.90;99.90
3752;DHT22;50827;47.014;7.652;2023-04-09T04:38:40;4.80;99.90
3752;DHT22;50827;47.014;7.652;2023-04-09T04:41:07;4.80;99.90
3752;DHT22;50827;47.014;7.652;2023-04-09T04:43:35;4.80;99.90
3752;DHT22;50827;47.014;7.652;2023-04-09T04:46:02;4.80;99.90
3752;DHT22;50827;47.014;7.652;2023-04-09T04:48:29;4.60;99.90
3752;DHT22;50827;47.014;7.652;2023-04-09T04:50:57;4.60;99.90
3752;DHT22;50827;47.014;7.652;2023-04-09T04:53:24;4.60;99.90
3752;DHT22;50827;47.014;7.652;2023-04-09T04:55:52;4.50;99.90
3752;DHT22;50827;47.014;7.652;2023-04-09T04:58:19;4.60;99.90
3752;DHT22;50827;47.014;7.652;2023-04-09T05:00:46;4.60;99.90
3752;DHT22;50827;47.014;7.652;2023-04-09T05:03:13;4.50;99.90
3752;DHT22;50827;47.014;7.652;2023-04-09T05:05:40;4.40;99.90
3752;DHT22;50827;47.014;7.652;2023-04-09T05:08:07;4.40;99.90
3752;DHT22;50827;47.014;7.652;2023-04-09T05:10:33;4.40;99.90
3752;DHT22;50827;47.014;7.652;2023-04-09T05:13:00;4.40;99.90
3752;DHT22;50827;47.014;7.652;2023-04-09T05:15:27;4.40;99.90
3752;DHT22;50827;47.014;7.652;2023-04-09T05:17:54;4.40;99.90
3752;DHT22;50827;47.014;7.652;2023-04-09T05:20:21;4.40;99.90
3752;DHT22;50827;47.014;7.652;2023-04-09T05:22:47;4.50;99.90
3752;DHT22;50827;47.014;7.652;2023-04-09T05:25:14;4.50;99.90
3752;DHT22;50827;47.014;7.652;2023-04-09T05:27:42;4.50;99.90
3752;DHT22;50827;47.014;7.652;2023-04-09T05:30:09;4.50;99.90
3752;DHT22;50827;47.014;7.652;2023-04-09T05:32:36;4.50;99.90
3752;DHT22;50827;47.014;7.652;2023-04-09T05:35:03;4.50;99.90
3752;DHT22;50827;47.014;7.652;2023-04-09T05:37:30;4.50;99.90
3752;DHT22;50827;47.014;7.652;2023-04-09T05:39:56;4.40;99.90
3752;DHT22;50827;47.014;7.652;2023-04-09T05:42:23;4.50;99.90
3752;DHT22;50827;47.014;7.652;2023-04-09T05:44:50;4.50;99.90
3752;DHT22;50827;47.014;7.652;2023-04-09T05:47:16;4.50;99.90
3752;DHT22;50827;47.014;7.652;2023-04-09T05:49:43;4.50;99.90
3752;DHT22;50827;47.014;7.652;2023-04-09T05:52:09;4.60;99.90
3752;DHT22;50827;47.014;7.652;2023-04-09T05:54:36;4.60;99.90
3752;DHT22;50827;47.014;7.652;2023-04-09T05:57:03;4.70;99.90
3752;DHT22;50827;47.014;7.652;2023-04-09T05:59:30;4.70;99.90
3752;DHT22;50827;47.014;7.652;2023-04-09T06:01:56;4.80;99.90
3752;DHT22;50827;47.014;7.652;2023-04-09T06:04:23;4.80;99.90
3752;DHT22;50827;47.014;7.652;2023-04-09T06:06:50;4.80;99.90
3752;DHT22;50827;47.014;7.652;2023-04-09T06:09:17;4.70;99.90
3752;DHT22;50827;47.014;7.652;2023-04-09T06:11:43;4.80;99.90
3752;DHT22;50827;47.014;7.652;2023-04-09T06:14:10;4.90;99.90
3752;DHT22;50827;47.014;7.652;2023-04-09T06:16:41;5.00;99.90
3752;DHT22;50827;47.014;7.652;2023-04-09T06:19:08;5.00;99.90
3752;DHT22;50827;47.014;7.652;2023-04-09T06:21:35;5.10;99.90
3752;DHT22;50827;47.014;7.652;2023-04-09T06:24:01;5.20;99.90
3752;DHT22;50827;47.014;7.652;2023-04-09T06:26:28;5.20;99.90
3752;DHT22;50827;47.014;7.652;2023-04-09T06:28:54;5.30;99.90
3752;DHT22;50827;47.014;7.652;2023-04-09T06:31:21;5.40;99.90
3752;DHT22;50827;47.014;7.652;2023-04-09T06:33:48;5.40;99.90
3752;DHT22;50827;47.014;7.652;2023-04-09T06:36:14;5.50;99.90
3752;DHT22;50827;47.014;7.652;2023-04-09T06:38:41;5.60;99.90
3752;DHT22;50827;47.014;7.652;2023-04-09T06:41:08;5.60;99.90
3752;DHT22;50827;47.014;7.652;2023-04-09T06:43:37;5.70;99.90
3752;DHT22;50827;47.014;7.652;2023-04-09T06:46:03;5.70;99.90
3752;DHT22;50827;47.014;7.652;2023-04-09T06:48:30;5.70;99.90
3752;DHT22;50827;47.014;7.652;2023-04-09T06:50:57;5.70;99.90
3752;DHT22;50827;47.014;7.652;2023-04-09T06:53:23;5.80;99.90
3752;DHT22;50827;47.014;7.652;2023-04-09T06:55:50;5.90;99.90
3752;DHT22;50827;47.014;7.652;2023-04-09T06:58:17;5.90;99.90
3752;DHT22;50827;47.014;7.652;2023-04-09T07:00:43;6.00;99.90
3752;DHT22;50827;47.014;7.652;2023-04-09T07:03:10;6.00;99.90
3752;DHT22;50827;47.014;7.652;2023-04-09T07:05:37;6.10;99.90
3752;DHT22;50827;47.014;7.652;2023-04-09T07:08:04;6.10;99.90
3752;DHT22;50827;47.014;7.652;2023-04-09T07:10:30;6.10;99.90
3752;DHT22;50827;47.014;7.652;2023-04-09T07:12:57;6.30;99.90
3752;DHT22;50827;47.014;7.652;2023-04-09T07:15:24;6.30;99.90
3752;DHT22;50827;47.014;7.652;2023-04-09T07:17:50;6.40;99.90
3752;DHT22;50827;47.014;7.652;2023-04-09T07:20:17;6.50;99.90
3752;DHT22;50827;47.014;7.652;2023-04-09T07:22:44;6.60;99.90
3752;DHT22;50827;47.014;7.652;2023-04-09T07:25:11;6.50;99.90
3752;DHT22;50827;47.014;7.652;2023-04-09T07:27:37;6.60;99.90
3752;DHT22;50827;47.014;7.652;2023-04-09T07:30:04;6.70;99.90
3752;DHT22;50827;47.014;7.652;2023-04-09T07:32:31;6.80;99.90
3752;DHT22;50827;47.014;7.652;2023-04-09T07:34:58;6.90;99.90
3752;DHT22;50827;47.014;7.652;2023-04-09T07:37:25;6.90;99.90
3752;DHT22;50827;47.014;7.652;2023-04-09T07:39:52;7.00;99.90
3752;DHT22;50827;47.014;7.652;2023-04-09T07:42:19;7.10;99.90
3752;DHT22;50827;47.014;7.652;2023-04-09T07:44:46;7.20;99.90
3752;DHT22;50827;47.014;7.652;2023-04-09T07:47:13;7.20;99.90
3752;DHT22;50827;47.014;7.652;2023-04-09T07:49:39;7.20;99.90
3752;DHT22;50827;47.014;7.652;2023-04-09T07:52:06;7.30;99.90
3752;DHT22;50827;47.014;7.652;2023-04-09T07:54:34;7.50;99.90
3752;DHT22;50827;47.014;7.652;2023-04-09T07:57:01;7.50;99.90
3752;DHT22;50827;47.014;7.652;2023-04-09T07:59:28;7.60;99.90
3752;DHT22;50827;47.014;7.652;2023-04-09T08:01:55;7.70;99.90
3752;DHT22;50827;47.014;7.652;2023-04-09T08:04:22;7.80;99.90
3752;DHT22;50827;47.014;7.652;2023-04-09T08:06:49;7.90;99.90
3752;DHT22;50827;47.014;7.652;2023-04-09T08:09:16;8.00;99.90
3752;DHT22;50827;47.014;7.652;2023-04-09T08:11:44;8.00;99.90
3752;DHT22;50827;47.014;7.652;2023-04-09T08:14:14;8.20;99.90
3752;DHT22;50827;47.014;7.652;2023-04-09T08:16:43;8.20;99.90
3752;DHT22;50827;47.014;7.652;2023-04-09T08:19:10;8.40;99.90
3752;DHT22;50827;47.014;7.652;2023-04-09T08:21:38;8.40;99.90
3752;DHT22;50827;47.014;7.652;2023-04-09T08:24:09;8.40;99.90
3752;DHT22;50827;47.014;7.652;2023-04-09T08:26:37;8.50;99.90
3752;DHT22;50827;47.014;7.652;2023-04-09T08:29:04;8.60;99.90
3752;DHT22;50827;47.014;7.652;2023-04-09T08:31:31;8.50;99.90
3752;DHT22;50827;47.014;7.652;2023-04-09T08:33:58;8.50;99.90
3752;DHT22;50827;47.014;7.652;2023-04-09T08:36:25;8.50;99.90
3752;DHT22;50827;47.014;7.652;2023-04-09T08:38:54;8.60;99.90
3752;DHT22;50827;47.014;7.652;2023-04-09T08:41:24;8.60;99.90
3752;DHT22;50827;47.014;7.652;2023-04-09T08:43:52;8.60;99.90
3752;DHT22;50827;47.014;7.652;2023-04-09T08:46:22;8.60;99.90
3752;DHT22;50827;47.014;7.652;2023-04-09T08:48:50;8.60;99.90
3752;DHT22;50827;47.014;7.652;2023-04-09T08:51:19;8.70;99.90
3752;DHT22;50827;47.014;7.652;2023-04-09T08:53:47;8.80;99.90
3752;DHT22;50827;47.014;7.652;2023-04-09T08:56:15;8.70;99.90
3752;DHT22;50827;47.014;7.652;2023-04-09T08:58:43;8.80;99.90
3752;DHT22;50827;47.014;7.652;2023-04-09T09:04:13;9.00;99.90
3752;DHT22;50827;47.014;7.652;2023-04-09T09:06:40;9.00;99.90
3752;DHT22;50827;47.014;7.652;2023-04-09T09:09:12;9.10;99.90
3752;DHT22;50827;47.014;7.652;2023-04-09T09:11:44;9.10;99.90
3752;DHT22;50827;47.014;7.652;2023-04-09T09:14:16;9.10;99.90
3752;DHT22;50827;47.014;7.652;2023-04-09T09:17:01;9.20;99.90
3752;DHT22;50827;47.014;7.652;2023-04-09T09:19:32;9.30;99.90
3752;DHT22;50827;47.014;7.652;2023-04-09T09:22:03;9.40;99.90
3752;DHT22;50827;47.014;7.652;2023-04-09T09:24:31;9.50;99.90
3752;DHT22;50827;47.014;7.652;2023-04-09T09:27:00;9.60;99.90
3752;DHT22;50827;47.014;7.652;2023-04-09T09:29:28;9.60;99.90
3752;DHT22;50827;47.014;7.652;2023-04-09T09:31:55;9.70;99.90
3752;DHT22;50827;47.014;7.652;2023-04-09T09:34:23;9.80;99.90
3752;DHT22;50827;47.014;7.652;2023-04-09T09:36:50;9.90;99.90
3752;DHT22;50827;47.014;7.652;2023-04-09T09:39:17;10.00;99.90
3752;DHT22;50827;47.014;7.652;2023-04-09T09:41:44;10.10;99.90
3752;DHT22;50827;47.014;7.652;2023-04-09T09:44:29;10.10;99.90
3752;DHT22;50827;47.014;7.652;2023-04-09T09:46:58;10.10;99.90
3752;DHT22;50827;47.014;7.652;2023-04-09T09:49:24;10.20;99.90
3752;DHT22;50827;47.014;7.652;2023-04-09T09:51:52;10.20;99.90
3752;DHT22;50827;47.014;7.652;2023-04-09T09:54:24;10.20;99.90
3752;DHT22;50827;47.014;7.652;2023-04-09T09:56:51;10.20;99.90
3752;DHT22;50827;47.014;7.652;2023-04-09T09:59:29;10.20;99.90
3752;DHT22;50827;47.014;7.652;2023-04-09T10:02:04;10.30;99.90
3752;DHT22;50827;47.014;7.652;2023-04-09T10:04:34;10.30;99.90
3752;DHT22;50827;47.014;7.652;2023-04-09T10:07:04;10.40;99.90
3752;DHT22;50827;47.014;7.652;2023-04-09T10:09:33;10.50;99.90
3752;DHT22;50827;47.014;7.652;2023-04-09T10:12:03;10.40;99.90
3752;DHT22;50827;47.014;7.652;2023-04-09T10:14:33;10.40;99.90
3752;DHT22;50827;47.014;7.652;2023-04-09T10:17:01;10.50;99.90
3752;DHT22;50827;47.014;7.652;2023-04-09T10:19:37;10.50;99.90
3752;DHT22;50827;47.014;7.652;2023-04-09T10:22:09;10.60;99.90
3752;DHT22;50827;47.014;7.652;2023-04-09T10:24:37;10.70;99.90
3752;DHT22;50827;47.014;7.652;2023-04-09T10:27:11;10.80;99.90
3752;DHT22;50827;47.014;7.652;2023-04-09T10:29:46;10.90;99.90
3752;DHT22;50827;47.014;7.652;2023-04-09T10:32:18;10.90;99.90
3752;DHT22;50827;47.014;7.652;2023-04-09T10:34:46;10.90;99.90
3752;DHT22;50827;47.014;7.652;2023-04-09T10:37:19;11.00;99.90
3752;DHT22;50827;47.014;7.652;2023-04-09T10:39:47;11.10;99.90
3752;DHT22;50827;47.014;7.652;2023-04-09T10:42:18;11.20;99.90
3752;DHT22;50827;47.014;7.652;2023-04-09T10:47:32;11.20;99.90
3752;DHT22;50827;47.014;7.652;2023-04-09T10:52:42;11.20;99.90
3752;DHT22;50827;47.014;7.652;2023-04-09T10:55:29;11.20;99.90
3752;DHT22;50827;47.014;7.652;2023-04-09T10:57:57;11.20;99.90
3752;DHT22;50827;47.014;7.652;2023-04-09T11:00:24;11.30;99.90
3752;DHT22;50827;47.014;7.652;2023-04-09T11:05:35;11.60;99.90
3752;DHT22;50827;47.014;7.652;2023-04-09T11:08:11;11.60;99.90
3752;DHT22;50827;47.014;7.652;2023-04-09T11:10:40;11.60;99.90
3752;DHT22;50827;47.014;7.652;2023-04-09T11:13:11;11.60;99.90
3752;DHT22;50827;47.014;7.652;2023-04-09T11:15:39;11.70;99.90
3752;DHT22;50827;47.014;7.652;2023-04-09T11:18:06;11.80;99.90
3752;DHT22;50827;47.014;7.652;2023-04-09T11:20:35;11.80;99.90
3752;DHT22;50827;47.014;7.652;2023-04-09T11:23:02;11.70;99.90
3752;DHT22;50827;47.014;7.652;2023-04-09T11:25:30;11.80;99.90
3752;DHT22;50827;47.014;7.652;2023-04-09T11:27:58;11.80;99.90
3752;DHT22;50827;47.014;7.652;2023-04-09T11:30:25;11.80;99.90
3752;DHT22;50827;47.014;7.652;2023-04-09T11:32:52;11.90;99.90
3752;DHT22;50827;47.014;7.652;2023-04-09T11:35:20;11.90;99.90
3752;DHT22;50827;47.014;7.652;2023-04-09T11:37:47;11.90;99.90
3752;DHT22;50827;47.014;7.652;2023-04-09T11:40:18;12.00;99.90
3752;DHT22;50827;47.014;7.652;2023-04-09T11:42:47;11.90;99.90
3752;DHT22;50827;47.014;7.652;2023-04-09T11:45:15;11.90;99.90
3752;DHT22;50827;47.014;7.652;2023-04-09T11:47:43;12.00;99.90
3752;DHT22;50827;47.014;7.652;2023-04-09T11:50:12;12.00;99.90
3752;DHT22;50827;47.014;7.652;2023-04-09T11:52:39;12.20;99.90
3752;DHT22;50827;47.014;7.652;2023-04-09T11:55:08;12.20;99.90
3752;DHT22;50827;47.014;7.652;2023-04-09T11:57:42;12.30;99.90
3752;DHT22;50827;47.014;7.652;2023-04-09T12:00:13;12.20;99.90
3752;DHT22;50827;47.014;7.652;2023-04-09T12:02:42;12.20;99.90
3752;DHT22;50827;47.014;7.652;2023-04-09T12:05:11;12.20;99.90
3752;DHT22;50827;47.014;7.652;2023-04-09T12:07:39;12.20;99.90
3752;DHT22;50827;47.014;7.652;2023-04-09T12:10:11;12.20;99.90
3752;DHT22;50827;47.014;7.652;2023-04-09T12:12:46;12.20;99.90
3752;DHT22;50827;47.014;7.652;2023-04-09T12:15:36;12.30;99.90
3752;DHT22;50827;47.014;7.652;2023-04-09T12:18:07;12.30;99.90
3752;DHT22;50827;47.014;7.652;2023-04-09T12:20:41;12.50;99.90
3752;DHT22;50827;47.014;7.652;2023-04-09T12:23:10;12.50;99.90
3752;DHT22;50827;47.014;7.652;2023-04-09T12:25:41;12.50;99.90
3752;DHT22;50827;47.014;7.652;2023-04-09T12:28:11;12.50;99.90
3752;DHT22;50827;47.014;7.652;2023-04-09T12:30:42;12.50;99.90
3752;DHT22;50827;47.014;7.652;2023-04-09T12:33:09;12.50;99.90
3752;DHT22;50827;47.014;7.652;2023-04-09T12:35:37;12.60;99.90
3752;DHT22;50827;47.014;7.652;2023-04-09T12:38:04;12.60;99.90
3752;DHT22;50827;47.014;7.652;2023-04-09T12:40:31;12.50;99.90
3752;DHT22;50827;47.014;7.652;2023-04-09T12:42:58;12.50;99.90
3752;DHT22;50827;47.014;7.652;2023-04-09T12:45:24;12.60;99.90
3752;DHT22;50827;47.014;7.652;2023-04-09T12:47:51;12.60;99.90
3752;DHT22;50827;47.014;7.652;2023-04-09T12:50:18;12.70;99.90
3752;DHT22;50827;47.014;7.652;2023-04-09T12:52:45;12.70;99.90
3752;DHT22;50827;47.014;7.652;2023-04-09T12:55:13;12.70;99.90
3752;DHT22;50827;47.014;7.652;2023-04-09T12:57:42;12.70;99.90
3752;DHT22;50827;47.014;7.652;2023-04-09T13:00:10;12.80;99.90
3752;DHT22;50827;47.014;7.652;2023-04-09T13:02:37;12.80;99.90
3752;DHT22;50827;47.014;7.652;2023-04-09T13:05:04;12.90;99.90
3752;DHT22;50827;47.014;7.652;2023-04-09T13:07:31;12.90;99.90
3752;DHT22;50827;47.014;7.652;2023-04-09T13:09:58;13.00;99.90
3752;DHT22;50827;47.014;7.652;2023-04-09T13:12:24;12.90;99.90
3752;DHT22;50827;47.014;7.652;2023-04-09T13:14:53;13.00;99.90
3752;DHT22;50827;47.014;7.652;2023-04-09T13:17:20;13.10;99.90
3752;DHT22;50827;47.014;7.652;2023-04-09T13:19:47;13.10;99.90
3752;DHT22;50827;47.014;7.652;2023-04-09T13:22:13;13.10;99.90
3752;DHT22;50827;47.014;7.652;2023-04-09T13:24:40;13.10;99.90
3752;DHT22;50827;47.014;7.652;2023-04-09T13:27:09;13.10;99.90
3752;DHT22;50827;47.014;7.652;2023-04-09T13:29:35;13.10;99.90
3752;DHT22;50827;47.014;7.652;2023-04-09T13:32:02;13.00;99.90
3752;DHT22;50827;47.014;7.652;2023-04-09T13:34:33;13.10;99.90
3752;DHT22;50827;47.014;7.652;2023-04-09T13:37:01;13.10;99.90
3752;DHT22;50827;47.014;7.652;2023-04-09T13:39:29;13.10;99.90
3752;DHT22;50827;47.014;7.652;2023-04-09T13:41:55;13.10;99.90
3752;DHT22;50827;47.014;7.652;2023-04-09T13:44:24;13.20;99.90
3752;DHT22;50827;47.014;7.652;2023-04-09T13:46:51;13.30;99.90
3752;DHT22;50827;47.014;7.652;2023-04-09T13:49:17;13.30;99.90
3752;DHT22;50827;47.014;7.652;2023-04-09T13:51:44;13.30;99.90
3752;DHT22;50827;47.014;7.652;2023-04-09T13:54:11;13.10;99.90
3752;DHT22;50827;47.014;7.652;2023-04-09T13:56:38;13.20;99.90
3752;DHT22;50827;47.014;7.652;2023-04-09T13:59:06;13.30;99.90
3752;DHT22;50827;47.014;7.652;2023-04-09T14:01:33;13.30;99.90
3752;DHT22;50827;47.014;7.652;2023-04-09T14:04:01;13.40;99.90
3752;DHT22;50827;47.014;7.652;2023-04-09T14:06:28;13.40;99.90
3752;DHT22;50827;47.014;7.652;2023-04-09T14:08:54;13.40;99.90
3752;DHT22;50827;47.014;7.652;2023-04-09T14:11:22;13.40;99.90
3752;DHT22;50827;47.014;7.652;2023-04-09T14:13:49;13.50;99.90
3752;DHT22;50827;47.014;7.652;2023-04-09T14:16:16;13.50;99.90
3752;DHT22;50827;47.014;7.652;2023-04-09T14:18:42;13.60;99.90
3752;DHT22;50827;47.014;7.652;2023-04-09T14:21:09;13.50;99.90
3752;DHT22;50827;47.014;7.652;2023-04-09T14:23:37;13.50;99.90
3752;DHT22;50827;47.014;7.652;2023-04-09T14:26:05;13.50;99.90
3752;DHT22;50827;47.014;7.652;2023-04-09T14:28:32;13.50;99.90
3752;DHT22;50827;47.014;7.652;2023-04-09T14:30:59;13.60;99.90
3752;DHT22;50827;47.014;7.652;2023-04-09T14:33:26;13.60;99.90
3752;DHT22;50827;47.014;7.652;2023-04-09T14:35:53;13.70;99.90
3752;DHT22;50827;47.014;7.652;2023-04-09T14:38:20;13.50;99.90
3752;DHT22;50827;47.014;7.652;2023-04-09T14:40:46;13.40;99.90
3752;DHT22;50827;47.014;7.652;2023-04-09T14:43:13;13.50;99.90
3752;DHT22;50827;47.014;7.652;2023-04-09T14:45:40;13.60;99.90
3752;DHT22;50827;47.014;7.652;2023-04-09T14:48:07;13.60;99.90
3752;DHT22;50827;47.014;7.652;2023-04-09T14:50:34;13.50;99.90
3752;DHT22;50827;47.014;7.652;2023-04-09T14:53:03;13.60;99.90
3752;DHT22;50827;47.014;7.652;2023-04-09T14:55:29;13.60;99.90
3752;DHT22;50827;47.014;7.652;2023-04-09T14:57:57;13.60;99.90
3752;DHT22;50827;47.014;7.652;2023-04-09T15:00:24;13.70;99.90
3752;DHT22;50827;47.014;7.652;2023-04-09T15:02:51;13.70;99.90
3752;DHT22;50827;47.014;7.652;2023-04-09T15:05:18;13.70;99.90
3752;DHT22;50827;47.014;7.652;2023-04-09T15:07:45;13.60;99.90
3752;DHT22;50827;47.014;7.652;2023-04-09T15:10:12;13.70;99.90
3752;DHT22;50827;47.014;7.652;2023-04-09T15:12:39;13.80;99.90
3752;DHT22;50827;47.014;7.652;2023-04-09T15:15:07;13.70;99.90
3752;DHT22;50827;47.014;7.652;2023-04-09T15:17:34;13.70;99.90
3752;DHT22;50827;47.014;7.652;2023-04-09T15:20:01;13.60;99.90
3752;DHT22;50827;47.014;7.652;2023-04-09T15:22:27;13.60;99.90
3752;DHT22;50827;47.014;7.652;2023-04-09T15:24:54;13.50;99.90
3752;DHT22;50827;47.014;7.652;2023-04-09T15:27:21;13.40;99.90
3752;DHT22;50827;47.014;7.652;2023-04-09T15:29:47;13.40;99.90
3752;DHT22;50827;47.014;7.652;2023-04-09T15:32:14;13.40;99.90
3752;DHT22;50827;47.014;7.652;2023-04-09T15:34:41;13.40;99.90
3752;DHT22;50827;47.014;7.652;2023-04-09T15:37:07;13.50;99.90
3752;DHT22;50827;47.014;7.652;2023-04-09T15:39:34;13.50;99.90
3752;DHT22;50827;47.014;7.652;2023-04-09T15:42:01;13.50;99.90
3752;DHT22;50827;47.014;7.652;2023-04-09T15:44:27;13.60;99.90
3752;DHT22;50827;47.014;7.652;2023-04-09T15:46:54;13.70;99.90
3752;DHT22;50827;47.014;7.652;2023-04-09T15:49:22;13.70;99.90
3752;DHT22;50827;47.014;7.652;2023-04-09T15:51:48;13.70;99.90
3752;DHT22;50827;47.014;7.652;2023-04-09T15:54:15;13.70;99.90
3752;DHT22;50827;47.014;7.652;2023-04-09T15:56:42;13.70;99.90
3752;DHT22;50827;47.014;7.652;2023-04-09T15:59:09;13.70;99.90
3752;DHT22;50827;47.014;7.652;2023-04-09T16:01:36;13.70;99.90
3752;DHT22;50827;47.014;7.652;2023-04-09T16:04:03;13.80;99.90
3752;DHT22;50827;47.014;7.652;2023-04-09T16:06:30;13.70;99.90
3752;DHT22;50827;47.014;7.652;2023-04-09T16:08:57;13.60;99.90
3752;DHT22;50827;47.014;7.652;2023-04-09T16:11:24;13.60;99.90
3752;DHT22;50827;47.014;7.652;2023-04-09T16:13:51;13.60;99.90
3752;DHT22;50827;47.014;7.652;2023-04-09T16:16:18;13.60;99.90
3752;DHT22;50827;47.014;7.652;2023-04-09T16:18:45;13.70;99.90
3752;DHT22;50827;47.014;7.652;2023-04-09T16:21:12;13.70;99.90
3752;DHT22;50827;47.014;7.652;2023-04-09T16:23:39;13.70;99.90